KEWB/EWB METAR and TAF weather

Enter ICAO airport designator
Station Type Date Time Source
KEWB METAR 2020/04/06 12:53 UTC NOAA

KEWB 061253Z 35008G16KT 10SM FEW090 09/01 A3000 RMK AO2 SLP159 T00890006


Station Type Date Time Source
KEWB Decoded METAR 2020/04/06 12:53 UTC NOAA

NEW BEDFORD REGIONAL AIRPORT, MA, United States (KEWB) 41-41N 070-58W 23M
Apr 06, 2020 - 08:53 AM EDT / 2020.04.06 1253 UTC
Wind: from the N (350 degrees) at 9 MPH (8 KT) gusting to 18 MPH (16 KT):0
Visibility: 10 mile(s):0
Sky conditions: mostly clear
Temperature: 48.0 F (8.9 C)
Dew Point: 33.1 F (0.6 C)
Relative Humidity: 55%
Pressure (altimeter): 30 in. Hg (1015 hPa)
ob: KEWB 061253Z 35008G16KT 10SM FEW090 09/01 A3000 RMK AO2 SLP159 T00890006
cycle: 13

Station Type Date Time Source
KEWB TAF UTC NOAA

Error!

Example: see airport list